Time;durP1;ratioP1;P1;durP2;ratioP2;P2;SDS_P1;SDS_P2;PMS_P1;PMS_P2;Temp;Humidity;BMP_temperature;BMP_pressure;BME280_temperature;BME280_humidity;BME280_pressure;Samples;Min_cycle;Max_cycle;Signal;HPM_P1;HPM_P2
2023/03/07 00:00:47;;;;;;;;;;;;;;;;;;5060045;28;20148;-84
2023/03/07 00:03:13;;;;;;;;;;;;;;;;;;5069236;28;19917;-86
2023/03/07 00:05:38;;;;;;;;;;;;;;;;;;5060086;28;19971;-84
2023/03/07 00:08:03;;;;;;;;;;;;;;;;;;5068821;28;20388;-84
2023/03/07 00:10:29;;;;;;;;;;;;;;;;;;5068751;28;20250;-84
2023/03/07 00:12:54;;;;;;;;;;;;;;;;;;5068514;28;19913;-84
2023/03/07 00:15:19;;;;;;;;;;;;;;;;;;5063337;28;19919;-85
2023/03/07 00:17:44;;;;;;;;;;;;;;;;;;5061385;28;19921;-85
2023/03/07 00:20:14;;;;;;;;;;;;;;;;;;5063286;28;19920;-85
2023/03/07 00:22:39;;;;;;;;;;;;;;;;;;5066704;28;20373;-85
2023/03/07 00:25:04;;;;;;;;;;;;;;;;;;5071910;28;19920;-85
2023/03/07 00:27:29;;;;;;;;;;;;;;;;;;5071908;28;19935;-86
2023/03/07 00:29:54;;;;;;;;;;;;;;;;;;5067563;28;20003;-85
2023/03/07 00:32:19;;;;;;;;;;;;;;;;;;5068353;28;19981;-85
2023/03/07 00:34:44;;;;;;;;;;;;;;;;;;5069359;28;19924;-85
2023/03/07 00:37:09;;;;;;;;;;;;;;;;;;5073224;28;20003;-85
2023/03/07 00:39:35;;;;;;;;;;;;;;;;;;5062011;28;20312;-85
2023/03/07 00:42:03;;;;;;;;;;;;;;;;;;5071392;28;20437;-86
2023/03/07 00:44:28;;;;;;;;;;;;;;;;;;5066996;28;19986;-86
2023/03/07 00:46:54;;;;;;;;;;;;;;;;;;5059946;28;20364;-86
2023/03/07 00:49:19;;;;;;;;;;;;;;;;;;5063628;28;19921;-84
2023/03/07 00:51:44;;;;;;;;;;;;;;;;;;5065496;28;19912;-84
2023/03/07 00:54:10;;;;;;;;;;;;;;;;;;5068437;28;20003;-84
2023/03/07 00:56:35;;;;;;;;;;;;;;;;;;5067531;28;19923;-85
2023/03/07 00:59:00;;;;;;;;;;;;;;;;;;5066553;28;19912;-85
2023/03/07 01:01:25;;;;;;;;;;;;;;;;;;5065411;28;19916;-85
2023/03/07 01:03:54;;;;;;;;;;;;;;;;;;5057391;28;19912;-84
2023/03/07 01:06:19;;;;;;;;;;;;;;;;;;5058704;28;19912;-84
2023/03/07 01:08:45;;;;;;;;;;;;;;;;;;5064593;28;19912;-85
2023/03/07 01:11:10;;;;;;;;;;;;;;;;;;5069960;28;19921;-84
2023/03/07 01:13:35;;;;;;;;;;;;;;;;;;5058393;28;20066;-83
2023/03/07 01:16:00;;;;;;;;;;;;;;;;;;5066686;28;19912;-84
2023/03/07 01:18:25;;;;;;;;;;;;;;;;;;5067478;28;20376;-84
2023/03/07 01:20:50;;;;;;;;;;;;;;;;;;5060964;28;19924;-85
2023/03/07 01:23:15;;;;;;;;;;;;;;;;;;5069689;28;19934;-85
2023/03/07 01:25:41;;;;;;;;;;;;;;;;;;5059134;28;19921;-84
2023/03/07 01:28:06;;;;;;;;;;;;;;;;;;5062246;28;19917;-83
2023/03/07 01:30:31;;;;;;;;;;;;;;;;;;5065507;28;19919;-83
2023/03/07 01:32:56;;;;;;;;;;;;;;;;;;5069338;28;19935;-84
2023/03/07 01:35:21;;;;;;;;;;;;;;;;;;5070320;28;19966;-84
2023/03/07 01:37:46;;;;;;;;;;;;;;;;;;5058503;28;20438;-83
2023/03/07 01:40:12;;;;;;;;;;;;;;;;;;5052778;28;19909;-84
2023/03/07 01:42:37;;;;;;;;;;;;;;;;;;5055280;28;20332;-84
2023/03/07 01:45:02;;;;;;;;;;;;;;;;;;5065595;28;20354;-84
2023/03/07 01:47:27;;;;;;;;;;;;;;;;;;5065924;28;19920;-84
2023/03/07 01:49:52;;;;;;;;;;;;;;;;;;5056407;28;19913;-84
2023/03/07 01:52:18;;;;;;;;;;;;;;;;;;5066784;28;20018;-83
2023/03/07 01:54:47;;;;;;;;;;;;;;;;;;5070973;28;19920;-84
2023/03/07 01:57:12;;;;;;;;;;;;;;;;;;5069353;28;19965;-85
2023/03/07 01:59:37;;;;;;;;;;;;;;;;;;5056959;28;20288;-85
2023/03/07 02:02:03;;;;;;;;;;;;;;;;;;5059457;28;20043;-85
2023/03/07 02:04:28;;;;;;;;;;;;;;;;;;5065695;28;20009;-85
2023/03/07 02:06:53;;;;;;;;;;;;;;;;;;5067557;28;19920;-85
2023/03/07 02:09:18;;;;;;;;;;;;;;;;;;5057124;28;20329;-85
2023/03/07 02:11:43;;;;;;;;;;;;;;;;;;5057711;28;20376;-84
2023/03/07 02:14:08;;;;;;;;;;;;;;;;;;5055119;28;20015;-84
2023/03/07 02:16:34;;;;;;;;;;;;;;;;;;5062708;28;19913;-84
2023/03/07 02:18:59;;;;;;;;;;;;;;;;;;5055348;28;19913;-84
2023/03/07 02:21:24;;;;;;;;;;;;;;;;;;5060838;28;20427;-82
2023/03/07 02:23:49;;;;;;;;;;;;;;;;;;5062991;28;20430;-83
2023/03/07 02:26:14;;;;;;;;;;;;;;;;;;5058449;28;19917;-84
2023/03/07 02:28:41;;;;;;;;;;;;;;;;;;5069400;28;19923;-83
2023/03/07 02:31:06;;;;;;;;;;;;;;;;;;5059875;28;19917;-83
2023/03/07 02:33:31;;;;;;;;;;;;;;;;;;5066890;28;20368;-83
2023/03/07 02:35:56;;;;;;;;;;;;;;;;;;5059326;28;19913;-83
2023/03/07 02:38:22;;;;;;;;;;;;;;;;;;5067454;28;19913;-83
2023/03/07 02:40:47;;;;;;;;;;;;;;;;;;5061968;28;20020;-84
2023/03/07 02:43:12;;;;;;;;;;;;;;;;;;5058531;28;19920;-84
2023/03/07 02:45:37;;;;;;;;;;;;;;;;;;5064180;28;19939;-84
2023/03/07 02:48:02;;;;;;;;;;;;;;;;;;5065456;28;19936;-84
2023/03/07 02:50:27;;;;;;;;;;;;;;;;;;5056211;28;19912;-84
2023/03/07 02:52:52;;;;;;;;;;;;;;;;;;5056465;28;19920;-84
2023/03/07 02:55:18;;;;;;;;;;;;;;;;;;5059189;28;19909;-84
2023/03/07 02:57:43;;;;;;;;;;;;;;;;;;5062130;28;19917;-85
2023/03/07 03:00:10;;;;;;;;;;;;;;;;;;5065691;28;19920;-85
2023/03/07 03:02:35;;;;;;;;;;;;;;;;;;5060807;28;19917;-83
2023/03/07 03:05:01;;;;;;;;;;;;;;;;;;5072434;28;20565;-84
2023/03/07 03:07:26;;;;;;;;;;;;;;;;;;5062823;28;20415;-83
2023/03/07 03:09:51;;;;;;;;;;;;;;;;;;5068620;28;19912;-84
2023/03/07 03:12:16;;;;;;;;;;;;;;;;;;5058615;28;19924;-84
2023/03/07 03:14:41;;;;;;;;;;;;;;;;;;5060940;28;20284;-84
2023/03/07 03:17:06;;;;;;;;;;;;;;;;;;5068022;28;19917;-83
2023/03/07 03:19:32;;;;;;;;;;;;;;;;;;5072999;28;19912;-83
2023/03/07 03:21:57;;;;;;;;;;;;;;;;;;5062901;28;19913;-83
2023/03/07 03:24:22;;;;;;;;;;;;;;;;;;5065434;28;19916;-84
2023/03/07 03:26:47;;;;;;;;;;;;;;;;;;5061619;28;19913;-83
2023/03/07 03:29:13;;;;;;;;;;;;;;;;;;5066277;28;19912;-84
2023/03/07 03:31:38;;;;;;;;;;;;;;;;;;5065632;28;19913;-85
2023/03/07 03:34:04;;;;;;;;;;;;;;;;;;5062939;28;19924;-84
2023/03/07 03:36:29;;;;;;;;;;;;;;;;;;5063002;28;19913;-84
2023/03/07 03:38:54;;;;;;;;;;;;;;;;;;5061960;28;19912;-85
2023/03/07 03:41:19;;;;;;;;;;;;;;;;;;5071475;28;19974;-83
2023/03/07 03:43:45;;;;;;;;;;;;;;;;;;5067532;28;19916;-83
2023/03/07 03:46:10;;;;;;;;;;;;;;;;;;5065121;28;20023;-83
2023/03/07 03:48:35;;;;;;;;;;;;;;;;;;5069284;28;19920;-83
2023/03/07 03:51:00;;;;;;;;;;;;;;;;;;5066376;28;19959;-83
2023/03/07 03:53:25;;;;;;;;;;;;;;;;;;5072479;28;19978;-83
2023/03/07 03:55:50;;;;;;;;;;;;;;;;;;5065850;28;19928;-83
2023/03/07 03:58:16;;;;;;;;;;;;;;;;;;5073043;28;20083;-83
2023/03/07 04:00:41;;;;;;;;;;;;;;;;;;5069437;28;19919;-83
2023/03/07 04:03:07;;;;;;;;;;;;;;;;;;5055707;28;19995;-83
2023/03/07 04:05:32;;;;;;;;;;;;;;;;;;5065283;28;19942;-83
2023/03/07 04:07:57;;;;;;;;;;;;;;;;;;5072714;28;19963;-83
2023/03/07 04:10:22;;;;;;;;;;;;;;;;;;5057644;28;19909;-83
2023/03/07 04:12:47;;;;;;;;;;;;;;;;;;5066761;28;19917;-83
2023/03/07 04:15:12;;;;;;;;;;;;;;;;;;5059794;28;20400;-84
2023/03/07 04:17:37;;;;;;;;;;;;;;;;;;5067376;28;19928;-84
2023/03/07 04:20:03;;;;;;;;;;;;;;;;;;5065672;28;19919;-84
2023/03/07 04:22:28;;;;;;;;;;;;;;;;;;5061290;28;19912;-83
2023/03/07 04:24:54;;;;;;;;;;;;;;;;;;5067470;28;19917;-84
2023/03/07 04:27:19;;;;;;;;;;;;;;;;;;5067806;28;19927;-84
2023/03/07 04:29:44;;;;;;;;;;;;;;;;;;5064597;28;19935;-83
2023/03/07 04:32:09;;;;;;;;;;;;;;;;;;5067258;28;19912;-83
2023/03/07 04:34:34;;;;;;;;;;;;;;;;;;5055024;28;19921;-84
2023/03/07 04:36:59;;;;;;;;;;;;;;;;;;5066414;28;19916;-84
2023/03/07 04:39:25;;;;;;;;;;;;;;;;;;5072270;28;19913;-84
2023/03/07 04:41:50;;;;;;;;;;;;;;;;;;5066912;28;20307;-83
2023/03/07 04:44:15;;;;;;;;;;;;;;;;;;5059280;28;19921;-84
2023/03/07 04:46:41;;;;;;;;;;;;;;;;;;5069390;28;19912;-84
2023/03/07 04:49:06;;;;;;;;;;;;;;;;;;5063391;28;19921;-82
2023/03/07 04:51:31;;;;;;;;;;;;;;;;;;5069826;28;19962;-83
2023/03/07 04:53:56;;;;;;;;;;;;;;;;;;5065726;28;19967;-83
2023/03/07 04:56:21;;;;;;;;;;;;;;;;;;5063045;28;19919;-83
2023/03/07 04:58:46;;;;;;;;;;;;;;;;;;5062426;28;19920;-84
2023/03/07 05:01:11;;;;;;;;;;;;;;;;;;5070926;28;19913;-84
2023/03/07 05:03:37;;;;;;;;;;;;;;;;;;5064580;28;19913;-84
2023/03/07 05:06:02;;;;;;;;;;;;;;;;;;5064134;28;19917;-84
2023/03/07 05:08:27;;;;;;;;;;;;;;;;;;5062423;28;19912;-83
2023/03/07 05:10:52;;;;;;;;;;;;;;;;;;5064735;28;20288;-85
2023/03/07 05:13:17;;;;;;;;;;;;;;;;;;5064956;28;19913;-86
2023/03/07 05:15:42;;;;;;;;;;;;;;;;;;5062330;28;19916;-86
2023/03/07 05:18:07;;;;;;;;;;;;;;;;;;5071553;28;19913;-85
2023/03/07 05:20:33;;;;;;;;;;;;;;;;;;5069933;28;19918;-83
2023/03/07 05:22:58;;;;;;;;;;;;;;;;;;5063897;28;20358;-85
2023/03/07 05:25:23;;;;;;;;;;;;;;;;;;5062092;28;19979;-87
2023/03/07 05:27:49;;;;;;;;;;;;;;;;;;5054011;28;19956;-85
2023/03/07 05:30:15;;;;;;;;;;;;;;;;;;5068397;28;19999;-85
2023/03/07 05:32:40;;;;;;;;;;;;;;;;;;5070552;28;19958;-87
2023/03/07 05:35:05;;;;;;;;;;;;;;;;;;5060925;28;20288;-84
2023/03/07 05:37:30;;;;;;;;;;;;;;;;;;5067569;28;19916;-80
2023/03/07 05:39:55;;;;;;;;;;;;;;;;;;5061697;28;19913;-84
2023/03/07 05:42:20;;;;;;;;;;;;;;;;;;5059721;28;19963;-81
2023/03/07 05:44:46;;;;;;;;;;;;;;;;;;5057465;28;19920;-83
2023/03/07 05:47:11;;;;;;;;;;;;;;;;;;5061842;28;19942;-84
2023/03/07 05:49:36;;;;;;;;;;;;;;;;;;5064716;28;19955;-81
2023/03/07 05:52:01;;;;;;;;;;;;;;;;;;5066238;28;19973;-81
2023/03/07 05:54:27;;;;;;;;;;;;;;;;;;5062620;28;19921;-85
2023/03/07 05:56:52;;;;;;;;;;;;;;;;;;5055955;28;19970;-83
2023/03/07 05:59:17;;;;;;;;;;;;;;;;;;5059771;28;19912;-78
2023/03/07 06:01:42;;;;;;;;;;;;;;;;;;5059783;28;19920;-77
2023/03/07 06:04:07;;;;;;;;;;;;;;;;;;5060981;28;20103;-78
2023/03/07 06:06:32;;;;;;;;;;;;;;;;;;5060767;28;20431;-77
2023/03/07 06:08:57;;;;;;;;;;;;;;;;;;5069507;28;19912;-77
2023/03/07 06:11:23;;;;;;;;;;;;;;;;;;5054082;28;20258;-78
2023/03/07 06:13:48;;;;;;;;;;;;;;;;;;5061577;28;19918;-79
2023/03/07 06:16:13;;;;;;;;;;;;;;;;;;5056513;28;19913;-82
2023/03/07 06:18:38;;;;;;;;;;;;;;;;;;5059165;28;20369;-81
2023/03/07 06:21:04;;;;;;;;;;;;;;;;;;5057592;28;19913;-80
2023/03/07 06:23:29;;;;;;;;;;;;;;;;;;5050120;28;20274;-80
2023/03/07 06:25:54;;;;;;;;;;;;;;;;;;5063866;28;20628;-80
2023/03/07 06:28:19;;;;;;;;;;;;;;;;;;5070010;28;20349;-81
2023/03/07 06:30:44;;;;;;;;;;;;;;;;;;5058839;28;19913;-80
2023/03/07 06:33:09;;;;;;;;;;;;;;;;;;5069283;28;19919;-81
2023/03/07 06:35:34;;;;;;;;;;;;;;;;;;5064154;28;20023;-81
2023/03/07 06:38:00;;;;;;;;;;;;;;;;;;5054400;28;19970;-81
2023/03/07 06:40:25;;;;;;;;;;;;;;;;;;5069277;28;20363;-80
2023/03/07 06:42:50;;;;;;;;;;;;;;;;;;5060774;28;19913;-79
2023/03/07 06:45:15;;;;;;;;;;;;;;;;;;5058206;28;19916;-79
2023/03/07 06:47:40;;;;;;;;;;;;;;;;;;5062961;28;19917;-80
2023/03/07 06:50:06;;;;;;;;;;;;;;;;;;5064887;28;20285;-81
2023/03/07 06:52:31;;;;;;;;;;;;;;;;;;5064254;28;20258;-81
2023/03/07 06:54:56;;;;;;;;;;;;;;;;;;5063644;28;20396;-81
2023/03/07 06:57:21;;;;;;;;;;;;;;;;;;5068926;28;19912;-80
2023/03/07 06:59:46;;;;;;;;;;;;;;;;;;5061630;28;19912;-81
2023/03/07 07:02:11;;;;;;;;;;;;;;;;;;5061004;28;19944;-81
2023/03/07 07:04:36;;;;;;;;;;;;;;;;;;5055525;28;19924;-80
2023/03/07 07:07:01;;;;;;;;;;;;;;;;;;5061404;28;19920;-81
2023/03/07 07:09:27;;;;;;;;;;;;;;;;;;5052562;28;19967;-81
2023/03/07 07:11:53;;;;;;;;;;;;;;;;;;5070056;28;19912;-81
2023/03/07 07:14:18;;;;;;;;;;;;;;;;;;5057255;28;20001;-81
2023/03/07 07:16:43;;;;;;;;;;;;;;;;;;5058084;28;19913;-81
2023/03/07 07:19:08;;;;;;;;;;;;;;;;;;5067565;28;20407;-81
2023/03/07 07:21:34;;;;;;;;;;;;;;;;;;5059663;28;19912;-81
2023/03/07 07:23:59;;;;;;;;;;;;;;;;;;5070733;28;19913;-81
2023/03/07 07:26:25;;;;;;;;;;;;;;;;;;5053502;28;19920;-81
2023/03/07 07:28:50;;;;;;;;;;;;;;;;;;5051956;28;19908;-81
2023/03/07 07:31:15;;;;;;;;;;;;;;;;;;5059667;28;20335;-81
2023/03/07 07:33:40;;;;;;;;;;;;;;;;;;5071670;28;19909;-81
2023/03/07 07:36:06;;;;;;;;;;;;;;;;;;5060996;28;20289;-81
2023/03/07 07:38:31;;;;;;;;;;;;;;;;;;5051328;28;19909;-81
2023/03/07 07:40:56;;;;;;;;;;;;;;;;;;5050749;28;19920;-81
2023/03/07 07:43:21;;;;;;;;;;;;;;;;;;5054519;28;19927;-81
2023/03/07 07:45:46;;;;;;;;;;;;;;;;;;5059480;28;19916;-81
2023/03/07 07:48:11;;;;;;;;;;;;;;;;;;5060762;28;20373;-81
2023/03/07 07:50:36;;;;;;;;;;;;;;;;;;5075389;28;20314;-81
2023/03/07 07:53:02;;;;;;;;;;;;;;;;;;5072730;28;20272;-80
2023/03/07 07:55:28;;;;;;;;;;;;;;;;;;5073928;28;19952;-80
2023/03/07 07:57:53;;;;;;;;;;;;;;;;;;5057161;28;19920;-80
2023/03/07 08:00:20;;;;;;;;;;;;;;;;;;5058151;28;19909;-81
2023/03/07 08:02:45;;;;;;;;;;;;;;;;;;5069286;28;19909;-80
2023/03/07 08:05:11;;;;;;;;;;;;;;;;;;5053699;28;19913;-80
2023/03/07 08:07:36;;;;;;;;;;;;;;;;;;5055650;28;19927;-80
2023/03/07 08:10:01;;;;;;;;;;;;;;;;;;5054886;28;19995;-80
2023/03/07 08:12:26;;;;;;;;;;;;;;;;;;5056508;28;19966;-80
2023/03/07 08:14:52;;;;;;;;;;;;;;;;;;5054292;28;19971;-81
2023/03/07 08:17:17;;;;;;;;;;;;;;;;;;5069003;28;19916;-80
2023/03/07 08:19:42;;;;;;;;;;;;;;;;;;5068532;28;20015;-80
2023/03/07 08:22:07;;;;;;;;;;;;;;;;;;5071298;28;20386;-80
2023/03/07 08:24:34;;;;;;;;;;;;;;;;;;5065303;28;20356;-80
2023/03/07 08:26:59;;;;;;;;;;;;;;;;;;5063065;28;19920;-80
2023/03/07 08:29:24;;;;;;;;;;;;;;;;;;5057795;28;19912;-80
2023/03/07 08:31:50;;;;;;;;;;;;;;;;;;5068879;28;19920;-80
2023/03/07 08:34:15;;;;;;;;;;;;;;;;;;5073081;28;20015;-78
2023/03/07 08:36:40;;;;;;;;;;;;;;;;;;5075161;28;20003;-80
2023/03/07 08:39:06;;;;;;;;;;;;;;;;;;5066248;28;19920;-79
2023/03/07 08:41:31;;;;;;;;;;;;;;;;;;5073383;28;19919;-79
2023/03/07 08:43:56;;;;;;;;;;;;;;;;;;5059924;28;19921;-79
2023/03/07 08:46:22;;;;;;;;;;;;;;;;;;5068408;28;19956;-79
2023/03/07 08:48:47;;;;;;;;;;;;;;;;;;5065872;28;19916;-79
2023/03/07 08:51:13;;;;;;;;;;;;;;;;;;5064955;28;19962;-79
2023/03/07 08:53:39;;;;;;;;;;;;;;;;;;5072467;28;20003;-79
2023/03/07 08:56:04;;;;;;;;;;;;;;;;;;5057374;28;19952;-79
2023/03/07 08:58:29;;;;;;;;;;;;;;;;;;5073972;28;19913;-79
2023/03/07 09:00:54;;;;;;;;;;;;;;;;;;5062661;28;19951;-79
2023/03/07 09:03:19;;;;;;;;;;;;;;;;;;5064617;28;19920;-79
2023/03/07 09:05:44;;;;;;;;;;;;;;;;;;5067993;28;19983;-80
2023/03/07 09:08:09;;;;;;;;;;;;;;;;;;5069770;28;19913;-80
2023/03/07 09:10:34;;;;;;;;;;;;;;;;;;5068063;28;19911;-79
2023/03/07 09:13:00;;;;;;;;;;;;;;;;;;5058646;28;19921;-79
2023/03/07 09:15:25;;;;;;;;;;;;;;;;;;5055782;28;19916;-79
2023/03/07 09:17:51;;;;;;;;;;;;;;;;;;5058834;28;19912;-78
2023/03/07 09:20:16;;;;;;;;;;;;;;;;;;5069466;28;19927;-78
2023/03/07 09:22:41;;;;;;;;;;;;;;;;;;5059912;28;20298;-79
2023/03/07 09:25:07;;;;;;;;;;;;;;;;;;5053274;28;19917;-79
2023/03/07 09:27:32;;;;;;;;;;;;;;;;;;5053594;28;19931;-78
2023/03/07 09:29:57;;;;;;;;;;;;;;;;;;5067045;28;19913;-79
2023/03/07 09:32:22;;;;;;;;;;;;;;;;;;5065562;28;19927;-79
2023/03/07 09:34:47;;;;;;;;;;;;;;;;;;5063636;28;19927;-79
2023/03/07 09:37:12;;;;;;;;;;;;;;;;;;5064683;28;19959;-78
2023/03/07 09:39:37;;;;;;;;;;;;;;;;;;5055593;28;20315;-80
2023/03/07 09:42:06;;;;;;;;;;;;;;;;;;5067475;28;20254;-80
2023/03/07 09:44:31;;;;;;;;;;;;;;;;;;5059064;28;19963;-79
2023/03/07 09:46:56;;;;;;;;;;;;;;;;;;5061481;28;19966;-78
2023/03/07 09:49:21;;;;;;;;;;;;;;;;;;5069944;28;19920;-79
2023/03/07 09:51:46;;;;;;;;;;;;;;;;;;5070182;28;19913;-79
2023/03/07 09:54:12;;;;;;;;;;;;;;;;;;5067451;28;19912;-79
2023/03/07 09:56:37;;;;;;;;;;;;;;;;;;5065352;28;19924;-79
2023/03/07 09:59:02;;;;;;;;;;;;;;;;;;5068993;28;19909;-79
2023/03/07 10:01:27;;;;;;;;;;;;;;;;;;5061090;28;19913;-79
2023/03/07 10:03:53;;;;;;;;;;;;;;;;;;5064546;28;19917;-79
2023/03/07 10:06:18;;;;;;;;;;;;;;;;;;5065857;28;20280;-79
2023/03/07 10:08:43;;;;;;;;;;;;;;;;;;5053821;28;20010;-77
2023/03/07 10:11:08;;;;;;;;;;;;;;;;;;5060640;28;19913;-77
2023/03/07 10:13:34;;;;;;;;;;;;;;;;;;5061528;28;20403;-79
2023/03/07 10:15:59;;;;;;;;;;;;;;;;;;5065214;28;19917;-80
2023/03/07 10:18:24;;;;;;;;;;;;;;;;;;5054387;28;19920;-79
2023/03/07 10:20:49;;;;;;;;;;;;;;;;;;5064451;28;20015;-80
2023/03/07 10:23:14;;;;;;;;;;;;;;;;;;5068900;28;19920;-79
2023/03/07 10:25:39;;;;;;;;;;;;;;;;;;5068542;28;19921;-79
2023/03/07 10:28:05;;;;;;;;;;;;;;;;;;5054403;28;19913;-79
2023/03/07 10:30:30;;;;;;;;;;;;;;;;;;5058361;28;19921;-77
2023/03/07 10:32:57;;;;;;;;;;;;;;;;;;5059361;28;19912;-80
2023/03/07 10:35:23;;;;;;;;;;;;;;;;;;5061380;28;19990;-79
2023/03/07 10:37:51;;;;;;;;;;;;;;;;;;5054510;28;20372;-80
2023/03/07 10:40:16;;;;;;;;;;;;;;;;;;5065682;28;20011;-79
2023/03/07 10:42:41;;;;;;;;;;;;;;;;;;5064227;28;20363;-78
2023/03/07 10:45:06;;;;;;;;;;;;;;;;;;5052985;28;20781;-78
2023/03/07 10:47:32;;;;;;;;;;;;;;;;;;5062687;28;19921;-78
2023/03/07 10:49:57;;;;;;;;;;;;;;;;;;5063997;28;19912;-79
2023/03/07 10:52:22;;;;;;;;;;;;;;;;;;5061727;28;20350;-79
2023/03/07 10:54:47;;;;;;;;;;;;;;;;;;5060571;28;20254;-79
2023/03/07 10:57:13;;;;;;;;;;;;;;;;;;5069561;28;20387;-79
2023/03/07 10:59:38;;;;;;;;;;;;;;;;;;5061705;28;19924;-79
2023/03/07 11:02:04;;;;;;;;;;;;;;;;;;5056186;28;19919;-79
2023/03/07 11:04:29;;;;;;;;;;;;;;;;;;5057133;28;19920;-79
2023/03/07 11:06:55;;;;;;;;;;;;;;;;;;5061935;28;19966;-79
2023/03/07 11:09:20;;;;;;;;;;;;;;;;;;5051322;28;19919;-78
2023/03/07 11:11:45;;;;;;;;;;;;;;;;;;5050673;28;19937;-77
2023/03/07 11:14:10;;;;;;;;;;;;;;;;;;5056019;28;20011;-82
2023/03/07 11:16:35;;;;;;;;;;;;;;;;;;5060432;28;20841;-81
2023/03/07 11:19:02;;;;;;;;;;;;;;;;;;5063287;28;19941;-81
2023/03/07 11:21:28;;;;;;;;;;;;;;;;;;5068947;28;19919;-81
2023/03/07 11:23:53;;;;;;;;;;;;;;;;;;5067963;28;19908;-81
2023/03/07 11:26:18;;;;;;;;;;;;;;;;;;5070402;28;20296;-81
2023/03/07 11:28:43;;;;;;;;;;;;;;;;;;5060690;28;20436;-81
2023/03/07 11:31:08;;;;;;;;;;;;;;;;;;5065200;28;19970;-81
2023/03/07 11:33:33;;;;;;;;;;;;;;;;;;5063954;28;20396;-81
2023/03/07 11:35:59;;;;;;;;;;;;;;;;;;5065631;28;20384;-81
2023/03/07 11:38:24;;;;;;;;;;;;;;;;;;5058068;28;19917;-81
2023/03/07 11:40:49;;;;;;;;;;;;;;;;;;5065665;28;19916;-80
2023/03/07 11:43:14;;;;;;;;;;;;;;;;;;5064700;28;19912;-80
2023/03/07 11:45:39;;;;;;;;;;;;;;;;;;5063830;28;19924;-81
2023/03/07 11:48:05;;;;;;;;;;;;;;;;;;5062864;28;19934;-81
2023/03/07 11:50:31;;;;;;;;;;;;;;;;;;5054267;28;19909;-81
2023/03/07 11:52:56;;;;;;;;;;;;;;;;;;5060779;28;19912;-81
2023/03/07 11:55:21;;;;;;;;;;;;;;;;;;5071442;28;19956;-81
2023/03/07 11:57:46;;;;;;;;;;;;;;;;;;5065103;28;19917;-81
2023/03/07 12:00:12;;;;;;;;;;;;;;;;;;5056242;28;19908;-81
2023/03/07 12:02:37;;;;;;;;;;;;;;;;;;5056884;28;19913;-81
2023/03/07 12:05:02;;;;;;;;;;;;;;;;;;5064171;28;20450;-80
2023/03/07 12:07:27;;;;;;;;;;;;;;;;;;5058166;28;19913;-81
2023/03/07 12:09:53;;;;;;;;;;;;;;;;;;5054739;28;20276;-80
2023/03/07 12:12:18;;;;;;;;;;;;;;;;;;5054775;28;20327;-80
2023/03/07 12:14:43;;;;;;;;;;;;;;;;;;5057293;28;19920;-80
2023/03/07 12:17:08;;;;;;;;;;;;;;;;;;5069420;28;19920;-80
2023/03/07 12:19:33;;;;;;;;;;;;;;;;;;5065318;28;19916;-81
2023/03/07 12:21:59;;;;;;;;;;;;;;;;;;5068598;28;19909;-80
2023/03/07 12:24:24;;;;;;;;;;;;;;;;;;5066891;28;19912;-81
2023/03/07 12:26:49;;;;;;;;;;;;;;;;;;5071611;28;20281;-82
2023/03/07 12:29:14;;;;;;;;;;;;;;;;;;5052902;28;20357;-82
2023/03/07 12:31:39;;;;;;;;;;;;;;;;;;5063778;28;20288;-82
2023/03/07 12:34:05;;;;;;;;;;;;;;;;;;5052984;28;20304;-81
2023/03/07 12:36:30;;;;;;;;;;;;;;;;;;5072308;28;19912;-82
2023/03/07 12:38:56;;;;;;;;;;;;;;;;;;5058324;28;19913;-81
2023/03/07 12:41:21;;;;;;;;;;;;;;;;;;5053037;28;19912;-81
2023/03/07 12:43:50;;;;;;;;;;;;;;;;;;5054042;28;19974;-82
2023/03/07 12:46:15;;;;;;;;;;;;;;;;;;5053575;28;19971;-81
2023/03/07 12:48:40;;;;;;;;;;;;;;;;;;5059059;28;19912;-80
2023/03/07 12:51:05;;;;;;;;;;;;;;;;;;5053599;28;19917;-80
2023/03/07 12:53:31;;;;;;;;;;;;;;;;;;5072484;28;19958;-81
2023/03/07 12:55:56;;;;;;;;;;;;;;;;;;5069022;28;19916;-81
2023/03/07 12:58:21;;;;;;;;;;;;;;;;;;5053140;28;19908;-80
2023/03/07 13:00:46;;;;;;;;;;;;;;;;;;5052444;28;20051;-80
2023/03/07 13:03:12;;;;;;;;;;;;;;;;;;5066365;28;19908;-80
2023/03/07 13:05:37;;;;;;;;;;;;;;;;;;5071668;28;19965;-81
2023/03/07 13:08:02;;;;;;;;;;;;;;;;;;5055268;28;19909;-80
2023/03/07 13:10:27;;;;;;;;;;;;;;;;;;5052368;28;19909;-81
2023/03/07 13:12:53;;;;;;;;;;;;;;;;;;5054595;28;19919;-81
2023/03/07 13:15:18;;;;;;;;;;;;;;;;;;5062058;28;20319;-81
2023/03/07 13:17:43;;;;;;;;;;;;;;;;;;5062385;28;19987;-76
2023/03/07 13:20:08;;;;;;;;;;;;;;;;;;5061314;28;19919;-76
2023/03/07 13:22:33;;;;;;;;;;;;;;;;;;5063434;28;19916;-76
2023/03/07 13:24:58;;;;;;;;;;;;;;;;;;5062088;28;19916;-76
2023/03/07 13:27:23;;;;;;;;;;;;;;;;;;5065462;28;19975;-76
2023/03/07 13:29:49;;;;;;;;;;;;;;;;;;5055634;28;19913;-76
2023/03/07 13:32:14;;;;;;;;;;;;;;;;;;5059863;28;19955;-76
2023/03/07 13:34:40;;;;;;;;;;;;;;;;;;5055201;28;20373;-76
2023/03/07 13:37:05;;;;;;;;;;;;;;;;;;5054686;28;19917;-77
2023/03/07 13:39:30;;;;;;;;;;;;;;;;;;5058368;28;20005;-81
2023/03/07 13:41:55;;;;;;;;;;;;;;;;;;5051122;28;19921;-82
2023/03/07 13:44:21;;;;;;;;;;;;;;;;;;5051464;28;20011;-80
2023/03/07 13:46:46;;;;;;;;;;;;;;;;;;5055746;28;19913;-78
2023/03/07 13:49:11;;;;;;;;;;;;;;;;;;5056018;28;19979;-79
2023/03/07 13:51:36;;;;;;;;;;;;;;;;;;5057815;28;19920;-81
2023/03/07 13:54:02;;;;;;;;;;;;;;;;;;5064923;28;20296;-79
2023/03/07 13:56:27;;;;;;;;;;;;;;;;;;5065545;28;19912;-77
2023/03/07 13:58:55;;;;;;;;;;;;;;;;;;5063839;28;19960;-78
2023/03/07 14:01:20;;;;;;;;;;;;;;;;;;5052256;28;19931;-79
2023/03/07 14:03:45;;;;;;;;;;;;;;;;;;5058039;28;19920;-80
2023/03/07 14:06:10;;;;;;;;;;;;;;;;;;5054550;28;20330;-81
2023/03/07 14:08:35;;;;;;;;;;;;;;;;;;5052222;28;20367;-81
2023/03/07 14:11:01;;;;;;;;;;;;;;;;;;5061686;28;19976;-80
2023/03/07 14:13:26;;;;;;;;;;;;;;;;;;5060927;28;20427;-81
2023/03/07 14:15:51;;;;;;;;;;;;;;;;;;5061176;28;19917;-81
2023/03/07 14:18:16;;;;;;;;;;;;;;;;;;5061664;28;20010;-79
2023/03/07 14:20:41;;;;;;;;;;;;;;;;;;5064497;28;19966;-81
2023/03/07 14:23:07;;;;;;;;;;;;;;;;;;5068182;28;19912;-81
2023/03/07 14:25:32;;;;;;;;;;;;;;;;;;5068592;28;19920;-76
2023/03/07 14:27:57;;;;;;;;;;;;;;;;;;5068497;28;20004;-77
2023/03/07 14:30:23;;;;;;;;;;;;;;;;;;5061988;28;19952;-78
2023/03/07 14:32:48;;;;;;;;;;;;;;;;;;5063555;28;19917;-79
2023/03/07 14:35:14;;;;;;;;;;;;;;;;;;5061732;28;20651;-77
2023/03/07 14:37:39;;;;;;;;;;;;;;;;;;5059123;28;20357;-79
2023/03/07 14:40:07;;;;;;;;;;;;;;;;;;5071779;28;20003;-79
2023/03/07 14:42:32;;;;;;;;;;;;;;;;;;5057896;28;19913;-78
2023/03/07 14:44:57;;;;;;;;;;;;;;;;;;5066760;28;20330;-78
2023/03/07 14:47:23;;;;;;;;;;;;;;;;;;5064721;28;19955;-79
2023/03/07 14:49:48;;;;;;;;;;;;;;;;;;5053782;28;19913;-80
2023/03/07 14:52:13;;;;;;;;;;;;;;;;;;5066399;28;19920;-80
2023/03/07 14:54:38;;;;;;;;;;;;;;;;;;5065520;28;20340;-80
2023/03/07 14:57:03;;;;;;;;;;;;;;;;;;5059381;28;19965;-82
2023/03/07 14:59:29;;;;;;;;;;;;;;;;;;5061629;28;19920;-80
2023/03/07 15:01:54;;;;;;;;;;;;;;;;;;5057337;28;20001;-80
2023/03/07 15:04:19;;;;;;;;;;;;;;;;;;5068733;28;19912;-81
2023/03/07 15:06:44;;;;;;;;;;;;;;;;;;5058197;28;19913;-81
2023/03/07 15:09:09;;;;;;;;;;;;;;;;;;5072237;28;19916;-81
2023/03/07 15:11:34;;;;;;;;;;;;;;;;;;5064943;28;20377;-82
2023/03/07 15:13:59;;;;;;;;;;;;;;;;;;5063598;28;19920;-82
2023/03/07 15:16:25;;;;;;;;;;;;;;;;;;5061169;28;19919;-80
2023/03/07 15:18:50;;;;;;;;;;;;;;;;;;5058727;28;19947;-80
2023/03/07 15:21:15;;;;;;;;;;;;;;;;;;5065483;28;19919;-80
2023/03/07 15:23:40;;;;;;;;;;;;;;;;;;5055021;28;19959;-81
2023/03/07 15:26:06;;;;;;;;;;;;;;;;;;5068769;28;20039;-81
2023/03/07 15:28:31;;;;;;;;;;;;;;;;;;5072623;28;19912;-81
2023/03/07 15:30:56;;;;;;;;;;;;;;;;;;5067646;28;20278;-81
2023/03/07 15:33:22;;;;;;;;;;;;;;;;;;5072593;28;19965;-81
2023/03/07 15:35:47;;;;;;;;;;;;;;;;;;5068321;28;19922;-82
2023/03/07 15:38:13;;;;;;;;;;;;;;;;;;5070421;28;19913;-81
2023/03/07 15:40:38;;;;;;;;;;;;;;;;;;5074377;28;19924;-81
2023/03/07 15:43:03;;;;;;;;;;;;;;;;;;5067273;28;19920;-81
2023/03/07 15:45:28;;;;;;;;;;;;;;;;;;5064460;28;19963;-82
2023/03/07 15:47:53;;;;;;;;;;;;;;;;;;5064311;28;19912;-81
2023/03/07 15:50:19;;;;;;;;;;;;;;;;;;5057812;28;19925;-81
2023/03/07 15:52:44;;;;;;;;;;;;;;;;;;5069365;28;19924;-82
2023/03/07 15:55:24;;;;;;;;;;;;;;;;;;5072454;28;20003;-81
2023/03/07 15:57:49;;;;;;;;;;;;;;;;;;5073137;28;19912;-81
2023/03/07 16:00:14;;;;;;;;;;;;;;;;;;5057853;28;20419;-81
2023/03/07 16:02:39;;;;;;;;;;;;;;;;;;5064330;28;19923;-81
2023/03/07 16:05:04;;;;;;;;;;;;;;;;;;5069723;28;19928;-81
2023/03/07 16:07:29;;;;;;;;;;;;;;;;;;5059574;28;20376;-81
2023/03/07 16:09:54;;;;;;;;;;;;;;;;;;5068118;28;20379;-81
2023/03/07 16:12:20;;;;;;;;;;;;;;;;;;5073592;28;19917;-81
2023/03/07 16:14:45;;;;;;;;;;;;;;;;;;5060181;28;19934;-81
2023/03/07 16:17:13;;;;;;;;;;;;;;;;;;5055416;28;19921;-81
2023/03/07 16:19:38;;;;;;;;;;;;;;;;;;5060735;28;20373;-80
2023/03/07 16:22:03;;;;;;;;;;;;;;;;;;5064080;28;19919;-81
2023/03/07 16:24:28;;;;;;;;;;;;;;;;;;5068786;28;19936;-81
2023/03/07 16:26:54;;;;;;;;;;;;;;;;;;5068492;28;19955;-81
2023/03/07 16:29:19;;;;;;;;;;;;;;;;;;5072516;28;20001;-82
2023/03/07 16:31:44;;;;;;;;;;;;;;;;;;5055007;28;19913;-81